Check out our new BloomSky Weather System.

Active alerts


No alerts


Thunder radar  blitzortung!


Rain radar more information rain snow radar


Visit our other weather sites:

Template documentation
and downloads

And another site



Weather Underground History page Text

Daily Summary for May 15, 2017 Units:  English    Metric   Both
« Previous Day
Next Day »
Daily Weekly Monthly Yearly Custom
  High: Low: Average:
Temperature: 88.3 °F 61.9 °F 76.2 °F
Dew Point: 70.0 °F 60.8 °F 66.3 °F
Humidity: 98 % 48 % 74 %
Wind Speed: 11.0 mph 0.0 mph 3.1 mph
Wind Gust: 16.0 mph - -
Wind:- - SE
Pressure: 29.98 in 29.86 in -
Precipitation: 0.00 in    
Historical Graphs
 
 
Tabular Data for May 15, 2017
Time Temperature Dew Point Pressure Wind Wind Speed Wind Gust Humidity Rainfall Rate (Hourly)
00:00 72.7 °F 66.6 °F 29.94 in SSW 2.0 mph 4.0 mph 81 % 0.00 in
00:05 72.3 °F 66.6 °F 29.94 in SSW 1.0 mph 3.0 mph 82 % 0.00 in
00:10 72.1 °F 66.4 °F 29.94 in South 1.0 mph 3.0 mph 82 % 0.00 in
00:16 72.1 °F 66.7 °F 29.94 in SSE 1.0 mph 4.0 mph 83 % 0.00 in
00:21 72.0 °F 66.6 °F 29.94 in South 2.0 mph 4.0 mph 83 % 0.00 in
00:26 71.8 °F 66.4 °F 29.94 in SSW 1.0 mph 4.0 mph 83 % 0.00 in
00:31 71.6 °F 66.6 °F 29.94 in South 1.0 mph 3.0 mph 84 % 0.00 in
00:36 71.4 °F 66.4 °F 29.94 in SSW 1.0 mph 3.0 mph 84 % 0.00 in
00:41 71.4 °F 66.4 °F 29.94 in Calm   5.0 mph 84 % 0.00 in
00:46 71.2 °F 66.6 °F 29.94 in SSW 2.0 mph 5.0 mph 85 % 0.00 in
00:51 71.2 °F 66.6 °F 29.94 in South 4.0 mph 5.0 mph 85 % 0.00 in
00:56 71.1 °F 66.4 °F 29.94 in SSE 1.0 mph 4.0 mph 85 % 0.00 in
00:58 71.1 °F 66.4 °F 29.94 in Calm   4.0 mph 85 % 0.00 in
01:03 71.1 °F 66.7 °F 29.93 in SSW 1.0 mph 4.0 mph 86 % 0.00 in
01:08 70.9 °F 66.6 °F 29.94 in SSW 2.0 mph 4.0 mph 86 % 0.00 in
01:13 70.7 °F 66.4 °F 29.94 in SSE 1.0 mph 3.0 mph 86 % 0.00 in
01:18 70.9 °F 66.6 °F 29.94 in SSE 1.0 mph 4.0 mph 86 % 0.00 in
01:23 70.7 °F 66.4 °F 29.93 in Calm   4.0 mph 86 % 0.00 in
01:28 70.5 °F 66.2 °F 29.93 in Calm   4.0 mph 86 % 0.00 in
01:33 70.5 °F 66.2 °F 29.93 in Calm   3.0 mph 86 % 0.00 in
01:38 70.3 °F 66.2 °F 29.93 in Calm   2.0 mph 87 % 0.00 in
01:43 70.2 °F 66.0 °F 29.93 in Calm   2.0 mph 87 % 0.00 in
01:48 69.6 °F 65.7 °F 29.93 in Calm   2.0 mph 87 % 0.00 in
01:53 69.3 °F 65.3 °F 29.93 in Calm   1.0 mph 87 % 0.00 in
01:58 69.1 °F 65.1 °F 29.93 in Calm   1.0 mph 87 % 0.00 in
02:03 68.7 °F 64.9 °F 29.93 in Calm     88 % 0.00 in
02:08 68.4 °F 64.6 °F 29.93 in Calm     88 % 0.00 in
02:13 68.2 °F 64.8 °F 29.93 in Calm     89 % 0.00 in
02:18 68.0 °F 64.9 °F 29.93 in Calm     90 % 0.00 in
02:23 67.8 °F 64.8 °F 29.92 in Calm     90 % 0.00 in
02:28 67.8 °F 64.8 °F 29.92 in Calm     90 % 0.00 in
02:34 67.5 °F 64.8 °F 29.92 in Calm     91 % 0.00 in
02:39 67.3 °F 64.6 °F 29.92 in Calm     91 % 0.00 in
02:44 67.1 °F 64.4 °F 29.92 in Calm     91 % 0.00 in
02:49 66.9 °F 64.6 °F 29.92 in Calm     92 % 0.00 in
02:54 66.7 °F 64.4 °F 29.92 in Calm     92 % 0.00 in
02:59 66.6 °F 64.2 °F 29.91 in Calm     92 % 0.00 in
03:04 66.2 °F 63.9 °F 29.91 in Calm     92 % 0.00 in
03:09 66.0 °F 63.9 °F 29.91 in Calm     93 % 0.00 in
03:14 66.0 °F 63.9 °F 29.91 in Calm     93 % 0.00 in
03:19 65.8 °F 63.7 °F 29.91 in Calm     93 % 0.00 in
03:24 65.7 °F 63.5 °F 29.91 in Calm     93 % 0.00 in
03:29 65.5 °F 63.3 °F 29.91 in Calm     93 % 0.00 in
03:34 65.3 °F 63.1 °F 29.91 in Calm     93 % 0.00 in
03:39 65.1 °F 63.0 °F 29.91 in Calm     93 % 0.00 in
03:44 64.9 °F 63.1 °F 29.91 in Calm     94 % 0.00 in
03:49 64.8 °F 62.6 °F 29.91 in Calm     93 % 0.00 in
03:54 64.8 °F 63.0 °F 29.91 in Calm     94 % 0.00 in
03:59 64.6 °F 62.8 °F 29.91 in Calm     94 % 0.00 in
04:04 64.6 °F 62.8 °F 29.91 in Calm     94 % 0.00 in
04:05 64.6 °F 62.8 °F 29.91 in Calm     94 % 0.00 in
04:10 64.6 °F 62.8 °F 29.91 in Calm     94 % 0.00 in
04:15 64.2 °F 62.4 °F 29.91 in Calm     94 % 0.00 in
04:20 64.0 °F 62.2 °F 29.91 in Calm     94 % 0.00 in
04:25 63.9 °F 62.1 °F 29.91 in Calm     94 % 0.00 in
04:30 63.7 °F 62.2 °F 29.91 in Calm     95 % 0.00 in
04:35 63.7 °F 62.2 °F 29.91 in Calm     95 % 0.00 in
04:40 63.3 °F 61.9 °F 29.91 in Calm     95 % 0.00 in
04:45 63.3 °F 61.9 °F 29.91 in Calm     95 % 0.00 in
04:50 63.0 °F 61.5 °F 29.91 in Calm     95 % 0.00 in
04:55 63.0 °F 61.5 °F 29.91 in Calm     95 % 0.00 in
05:00 63.1 °F 61.7 °F 29.91 in Calm     95 % 0.00 in
05:05 63.0 °F 61.5 °F 29.91 in Calm     95 % 0.00 in
05:10 63.0 °F 61.5 °F 29.91 in Calm     95 % 0.00 in
05:15 62.8 °F 61.7 °F 29.91 in Calm     96 % 0.00 in
05:20 62.4 °F 61.0 °F 29.91 in Calm     95 % 0.00 in
05:25 62.2 °F 60.8 °F 29.91 in Calm     95 % 0.00 in
05:30 62.2 °F 61.2 °F 29.92 in Calm     96 % 0.00 in
05:35 62.1 °F 61.0 °F 29.91 in Calm     96 % 0.00 in
05:40 62.1 °F 61.0 °F 29.91 in Calm     96 % 0.00 in
05:45 61.9 °F 60.8 °F 29.92 in Calm     96 % 0.00 in
05:50 62.2 °F 61.3 °F 29.92 in Calm     97 % 0.00 in
05:55 62.4 °F 61.5 °F 29.92 in Calm     97 % 0.00 in
06:00 62.6 °F 61.7 °F 29.92 in Calm     97 % 0.00 in
06:05 62.6 °F 61.7 °F 29.92 in Calm     97 % 0.00 in
06:10 62.8 °F 61.9 °F 29.92 in Calm     97 % 0.00 in
06:15 62.6 °F 61.5 °F 29.92 in Calm     96 % 0.00 in
06:20 62.6 °F 61.7 °F 29.92 in Calm     97 % 0.00 in
06:25 62.8 °F 61.9 °F 29.92 in Calm     97 % 0.00 in
06:30 62.8 °F 61.9 °F 29.92 in Calm     97 % 0.00 in
06:35 62.8 °F 61.9 °F 29.93 in Calm     97 % 0.00 in
06:40 62.8 °F 61.9 °F 29.94 in Calm     97 % 0.00 in
06:45 62.6 °F 61.5 °F 29.93 in Calm     96 % 0.00 in
06:50 62.4 °F 61.5 °F 29.93 in Calm     97 % 0.00 in
06:55 62.4 °F 61.5 °F 29.94 in Calm     97 % 0.00 in
06:56 62.4 °F 61.5 °F 29.94 in Calm     97 % 0.00 in
07:01 62.4 °F 61.5 °F 29.94 in Calm     97 % 0.00 in
07:06 62.8 °F 61.9 °F 29.93 in Calm     97 % 0.00 in
07:11 63.1 °F 62.2 °F 29.93 in Calm     97 % 0.00 in
07:16 63.9 °F 63.3 °F 29.94 in Calm     98 % 0.00 in
07:21 65.1 °F 64.6 °F 29.94 in Calm     98 % 0.00 in
07:26 66.0 °F 65.5 °F 29.94 in Calm     98 % 0.00 in
07:31 66.7 °F 66.2 °F 29.94 in Calm     98 % 0.00 in
07:36 67.6 °F 67.1 °F 29.94 in Calm     98 % 0.00 in
07:41 68.4 °F 67.5 °F 29.94 in Calm     97 % 0.00 in
07:46 69.3 °F 68.4 °F 29.94 in Calm     97 % 0.00 in
07:51 70.2 °F 69.3 °F 29.93 in Calm     97 % 0.00 in
07:56 70.9 °F 69.6 °F 29.93 in Calm   1.0 mph 96 % 0.00 in
08:01 71.4 °F 69.6 °F 29.94 in Calm   1.0 mph 94 % 0.00 in
08:06 72.1 °F 70.0 °F 29.94 in Calm   1.0 mph 93 % 0.00 in
08:11 72.9 °F 69.8 °F 29.94 in ENE 1.0 mph 1.0 mph 90 % 0.00 in
08:16 73.2 °F 69.8 °F 29.94 in Calm   2.0 mph 89 % 0.00 in
08:22 73.8 °F 68.9 °F 29.94 in Calm   3.0 mph 85 % 0.00 in
08:27 74.3 °F 68.7 °F 29.94 in East 1.0 mph 3.0 mph 83 % 0.00 in
08:32 74.8 °F 68.2 °F 29.95 in SE 4.0 mph 4.0 mph 80 % 0.00 in
08:37 74.8 °F 67.8 °F 29.95 in ESE 2.0 mph 5.0 mph 79 % 0.00 in
08:42 75.0 °F 67.6 °F 29.95 in Calm   5.0 mph 78 % 0.00 in
08:47 75.6 °F 68.2 °F 29.95 in ESE 2.0 mph 5.0 mph 78 % 0.00 in
08:52 75.9 °F 67.8 °F 29.96 in Calm   5.0 mph 76 % 0.00 in
08:57 76.6 °F 68.2 °F 29.96 in SSE 2.0 mph 5.0 mph 75 % 0.00 in
09:02 76.6 °F 67.3 °F 29.96 in SSW 1.0 mph 7.0 mph 73 % 0.00 in
09:07 76.8 °F 67.1 °F 29.97 in SE 3.0 mph 7.0 mph 72 % 0.00 in
09:12 77.2 °F 67.5 °F 29.97 in SW 2.0 mph 7.0 mph 72 % 0.00 in
09:17 77.4 °F 67.3 °F 29.98 in SE 4.0 mph 7.0 mph 71 % 0.00 in
09:22 77.7 °F 67.6 °F 29.98 in SSW 3.0 mph 7.0 mph 71 % 0.00 in
09:27 77.9 °F 67.8 °F 29.97 in South 1.0 mph 7.0 mph 71 % 0.00 in
09:32 78.4 °F 68.2 °F 29.97 in SE 6.0 mph 7.0 mph 71 % 0.00 in
09:37 78.4 °F 66.2 °F 29.97 in East 4.0 mph 9.0 mph 66 % 0.00 in
09:42 78.3 °F 66.0 °F 29.97 in East 4.0 mph 10.0 mph 66 % 0.00 in
09:44 78.3 °F 66.0 °F 29.97 in ENE 4.0 mph 10.0 mph 66 % 0.00 in
09:49 78.4 °F 66.6 °F 29.97 in SE 8.0 mph 10.0 mph 67 % 0.00 in
09:50 78.3 °F 66.0 °F 29.97 in ESE 6.0 mph 11.0 mph 66 % 0.00 in
09:55 78.4 °F 66.6 °F 29.97 in South 7.0 mph 11.0 mph 67 % 0.00 in
10:00 79.0 °F 66.6 °F 29.96 in SSE 5.0 mph 11.0 mph 66 % 0.00 in
10:05 79.0 °F 66.2 °F 29.97 in South 4.0 mph 10.0 mph 65 % 0.00 in
10:10 79.2 °F 66.7 °F 29.96 in East 6.0 mph 9.0 mph 66 % 0.00 in
10:15 79.9 °F 67.1 °F 29.96 in East 8.0 mph 9.0 mph 65 % 0.00 in
10:20 80.2 °F 66.0 °F 29.96 in SE 8.0 mph 10.0 mph 62 % 0.00 in
10:25 80.4 °F 66.7 °F 29.96 in ESE 7.0 mph 10.0 mph 63 % 0.00 in
10:30 80.8 °F 66.6 °F 29.96 in SE 7.0 mph 10.0 mph 62 % 0.00 in
10:35 80.4 °F 65.7 °F 29.96 in ESE 8.0 mph 11.0 mph 61 % 0.00 in
10:40 80.2 °F 66.6 °F 29.96 in SE 8.0 mph 11.0 mph 63 % 0.00 in
10:45 80.2 °F 66.9 °F 29.96 in SSW 3.0 mph 11.0 mph 64 % 0.00 in
10:50 79.7 °F 66.4 °F 29.96 in South 3.0 mph 9.0 mph 64 % 0.00 in
10:55 80.1 °F 66.4 °F 29.96 in SSE 2.0 mph 9.0 mph 63 % 0.00 in
11:01 80.2 °F 66.6 °F 29.97 in SSW 3.0 mph 8.0 mph 63 % 0.00 in
11:06 80.4 °F 66.7 °F 29.96 in SSW 2.0 mph 8.0 mph 63 % 0.00 in
11:11 80.8 °F 66.9 °F 29.96 in SE 2.0 mph 6.0 mph 63 % 0.00 in
11:16 81.7 °F 66.4 °F 29.96 in SE 2.0 mph 7.0 mph 60 % 0.00 in
11:21 81.7 °F 66.9 °F 29.96 in SSW 5.0 mph 8.0 mph 61 % 0.00 in
11:26 81.9 °F 65.1 °F 29.96 in SSW 2.0 mph 10.0 mph 57 % 0.00 in
11:31 82.2 °F 66.4 °F 29.96 in SE 7.0 mph 10.0 mph 59 % 0.00 in
11:36 82.8 °F 64.9 °F 29.96 in South 7.0 mph 10.0 mph 55 % 0.00 in
11:41 83.1 °F 64.8 °F 29.96 in ESE 11.0 mph 11.0 mph 54 % 0.00 in
11:46 83.3 °F 65.5 °F 29.96 in SE 9.0 mph 11.0 mph 55 % 0.00 in
11:51 82.9 °F 65.1 °F 29.96 in South 4.0 mph 12.0 mph 55 % 0.00 in
11:56 83.5 °F 66.6 °F 29.96 in SE 4.0 mph 12.0 mph 57 % 0.00 in
12:01 83.8 °F 66.0 °F 29.96 in SSW 3.0 mph 12.0 mph 55 % 0.00 in
12:06 84.4 °F 66.4 °F 29.96 in SE 8.0 mph 11.0 mph 55 % 0.00 in
12:11 84.0 °F 65.1 °F 29.96 in SE 4.0 mph 12.0 mph 53 % 0.00 in
12:16 84.6 °F 64.9 °F 29.95 in SE 10.0 mph 13.0 mph 52 % 0.00 in
12:21 84.6 °F 66.0 °F 29.95 in SSE 8.0 mph 13.0 mph 54 % 0.00 in
12:26 84.9 °F 65.8 °F 29.95 in SE 8.0 mph 13.0 mph 53 % 0.00 in
12:31 85.3 °F 66.2 °F 29.95 in ENE 1.0 mph 12.0 mph 53 % 0.00 in
12:36 85.6 °F 64.9 °F 29.95 in East 2.0 mph 12.0 mph 50 % 0.00 in
12:41 85.6 °F 65.5 °F 29.94 in SE 6.0 mph 12.0 mph 51 % 0.00 in
12:43 85.5 °F 66.9 °F 29.94 in SSE 4.0 mph 12.0 mph 54 % 0.00 in
12:48 86.5 °F 66.7 °F 29.94 in ESE 3.0 mph 10.0 mph 52 % 0.00 in
12:53 85.6 °F 66.6 °F 29.94 in SE 5.0 mph 12.0 mph 53 % 0.00 in
12:58 85.3 °F 65.7 °F 29.94 in East 5.0 mph 12.0 mph 52 % 0.00 in
13:03 85.5 °F 66.9 °F 29.94 in South 5.0 mph 12.0 mph 54 % 0.00 in
13:08 85.6 °F 66.6 °F 29.93 in SE 6.0 mph 11.0 mph 53 % 0.00 in
13:13 86.0 °F 65.8 °F 29.93 in SSW 3.0 mph 12.0 mph 51 % 0.00 in
13:18 86.4 °F 66.7 °F 29.93 in SSE 5.0 mph 12.0 mph 52 % 0.00 in
13:23 86.5 °F 66.7 °F 29.92 in SSE 7.0 mph 12.0 mph 52 % 0.00 in
13:28 87.1 °F 65.7 °F 29.92 in SE 3.0 mph 9.0 mph 49 % 0.00 in
13:38 86.4 °F 66.7 °F 29.92 in SSE 2.0 mph 11.0 mph 52 % 0.00 in
13:43 86.7 °F 67.5 °F 29.92 in SSE 3.0 mph 12.0 mph 53 % 0.00 in
13:48 87.1 °F 67.3 °F 29.91 in East 3.0 mph 12.0 mph 52 % 0.00 in
13:53 87.4 °F 67.1 °F 29.91 in ESE 6.0 mph 12.0 mph 51 % 0.00 in
13:58 87.3 °F 66.9 °F 29.91 in South 6.0 mph 12.0 mph 51 % 0.00 in
14:03 87.6 °F 66.7 °F 29.91 in South 7.0 mph 12.0 mph 50 % 0.00 in
14:08 87.8 °F 67.5 °F 29.91 in NNW 3.0 mph 12.0 mph 51 % 0.00 in
14:13 87.6 °F 68.4 °F 29.91 in SE 4.0 mph 11.0 mph 53 % 0.00 in
14:18 87.1 °F 67.8 °F 29.91 in ESE 6.0 mph 12.0 mph 53 % 0.00 in
14:23 86.4 °F 68.4 °F 29.91 in SE 4.0 mph 12.0 mph 55 % 0.00 in
14:28 86.5 °F 68.0 °F 29.91 in SE 4.0 mph 12.0 mph 54 % 0.00 in
14:38 86.7 °F 68.5 °F 29.90 in ESE 5.0 mph 10.0 mph 55 % 0.00 in
14:43 87.1 °F 68.9 °F 29.90 in NNE 8.0 mph 10.0 mph 55 % 0.00 in
14:48 87.3 °F 68.5 °F 29.90 in ENE 7.0 mph 13.0 mph 54 % 0.00 in
14:53 87.4 °F 68.7 °F 29.89 in ENE 5.0 mph 13.0 mph 54 % 0.00 in
14:58 87.6 °F 67.8 °F 29.89 in SE 6.0 mph 13.0 mph 52 % 0.00 in
15:03 87.3 °F 68.0 °F 29.89 in NW 2.0 mph 12.0 mph 53 % 0.00 in
15:08 87.1 °F 67.8 °F 29.89 in East 5.0 mph 12.0 mph 53 % 0.00 in
15:13 87.3 °F 67.5 °F 29.89 in ESE 5.0 mph 13.0 mph 52 % 0.00 in
15:18 88.0 °F 68.7 °F 29.89 in SE 6.0 mph 13.0 mph 53 % 0.00 in
15:23 88.0 °F 67.6 °F 29.88 in SE 7.0 mph 13.0 mph 51 % 0.00 in
15:28 87.8 °F 67.5 °F 29.88 in SE 7.0 mph 13.0 mph 51 % 0.00 in
15:33 87.8 °F 68.0 °F 29.88 in SE 3.0 mph 13.0 mph 52 % 0.00 in
15:39 86.7 °F 66.4 °F 29.89 in ESE 7.0 mph 14.0 mph 51 % 0.00 in
15:44 86.4 °F 67.8 °F 29.88 in SE 6.0 mph 14.0 mph 54 % 0.00 in
15:49 87.3 °F 66.9 °F 29.88 in SW 8.0 mph 14.0 mph 51 % 0.00 in
15:54 88.0 °F 67.6 °F 29.88 in SE 3.0 mph 14.0 mph 51 % 0.00 in
15:59 88.2 °F 66.0 °F 29.88 in SSE 4.0 mph 11.0 mph 48 % 0.00 in
16:04 88.3 °F 66.2 °F 29.88 in SE 7.0 mph 12.0 mph 48 % 0.00 in
16:09 87.6 °F 65.5 °F 29.88 in East 6.0 mph 12.0 mph 48 % 0.00 in
16:14 87.3 °F 68.0 °F 29.88 in ESE 5.0 mph 14.0 mph 53 % 0.00 in
16:19 87.4 °F 67.1 °F 29.88 in SSE 2.0 mph 14.0 mph 51 % 0.00 in
16:24 87.6 °F 66.7 °F 29.87 in SSE 3.0 mph 14.0 mph 50 % 0.00 in
16:29 87.3 °F 66.4 °F 29.87 in SE 2.0 mph 12.0 mph 50 % 0.00 in
16:34 87.1 °F 66.2 °F 29.87 in ESE 7.0 mph 11.0 mph 50 % 0.00 in
16:39 86.7 °F 66.9 °F 29.87 in SE 9.0 mph 14.0 mph 52 % 0.00 in
16:44 86.5 °F 66.7 °F 29.87 in SE 6.0 mph 16.0 mph 52 % 0.00 in
16:49 86.4 °F 67.3 °F 29.87 in SE 7.0 mph 16.0 mph 53 % 0.00 in
16:54 85.8 °F 67.3 °F 29.87 in East 8.0 mph 16.0 mph 54 % 0.00 in
16:59 85.3 °F 66.7 °F 29.87 in SE 6.0 mph 13.0 mph 54 % 0.00 in
17:04 85.8 °F 66.7 °F 29.87 in SSE 7.0 mph 15.0 mph 53 % 0.00 in
17:09 85.8 °F 67.3 °F 29.86 in South 4.0 mph 15.0 mph 54 % 0.00 in
17:14 86.2 °F 67.1 °F 29.87 in ESE 6.0 mph 15.0 mph 53 % 0.00 in
17:19 85.8 °F 67.8 °F 29.87 in SE 2.0 mph 15.0 mph 55 % 0.00 in
17:24 84.7 °F 67.3 °F 29.87 in ESE 7.0 mph 15.0 mph 56 % 0.00 in
17:29 84.6 °F 67.6 °F 29.86 in SE 4.0 mph 15.0 mph 57 % 0.00 in
17:30 84.6 °F 67.6 °F 29.86 in SE 7.0 mph 15.0 mph 57 % 0.00 in
17:35 85.1 °F 67.6 °F 29.86 in ESE 5.0 mph 15.0 mph 56 % 0.00 in
17:40 84.9 °F 67.5 °F 29.86 in ESE 8.0 mph 15.0 mph 56 % 0.00 in
17:45 84.6 °F 68.2 °F 29.87 in NW 3.0 mph 14.0 mph 58 % 0.00 in
17:50 84.4 °F 68.0 °F 29.87 in South 5.0 mph 14.0 mph 58 % 0.00 in
17:55 84.7 °F 68.4 °F 29.87 in East 7.0 mph 16.0 mph 58 % 0.00 in
18:00 84.6 °F 68.2 °F 29.87 in South 6.0 mph 16.0 mph 58 % 0.00 in
18:05 84.4 °F 68.0 °F 29.87 in ESE 6.0 mph 16.0 mph 58 % 0.00 in
18:10 83.8 °F 66.9 °F 29.87 in SSE 10.0 mph 14.0 mph 57 % 0.00 in
18:15 83.7 °F 67.8 °F 29.87 in ESE 6.0 mph 14.0 mph 59 % 0.00 in
18:20 83.8 °F 68.0 °F 29.87 in ESE 10.0 mph 14.0 mph 59 % 0.00 in
18:25 83.7 °F 68.4 °F 29.87 in ESE 6.0 mph 14.0 mph 60 % 0.00 in
18:30 83.3 °F 68.0 °F 29.87 in ENE 7.0 mph 14.0 mph 60 % 0.00 in
18:35 82.8 °F 68.0 °F 29.87 in ESE 3.0 mph 14.0 mph 61 % 0.00 in
18:40 82.4 °F 67.6 °F 29.87 in East 5.0 mph 11.0 mph 61 % 0.00 in
18:45 82.0 °F 67.3 °F 29.87 in SE 6.0 mph 10.0 mph 61 % 0.00 in
18:50 82.0 °F 67.3 °F 29.88 in ESE 5.0 mph 12.0 mph 61 % 0.00 in
18:55 82.0 °F 66.7 °F 29.88 in ESE 6.0 mph 12.0 mph 60 % 0.00 in
19:00 82.0 °F 67.6 °F 29.88 in ESE 7.0 mph 12.0 mph 62 % 0.00 in
19:05 81.7 °F 67.5 °F 29.88 in ESE 6.0 mph 9.0 mph 62 % 0.00 in
19:10 81.7 °F 66.9 °F 29.88 in ESE 3.0 mph 11.0 mph 61 % 0.00 in
19:15 81.7 °F 66.9 °F 29.88 in East 4.0 mph 11.0 mph 61 % 0.00 in
19:20 81.3 °F 66.6 °F 29.88 in ESE 1.0 mph 11.0 mph 61 % 0.00 in
19:25 81.1 °F 66.9 °F 29.88 in East 8.0 mph 10.0 mph 62 % 0.00 in
19:30 81.0 °F 66.7 °F 29.88 in ESE 3.0 mph 11.0 mph 62 % 0.00 in
19:35 80.8 °F 67.5 °F 29.89 in East 2.0 mph 11.0 mph 64 % 0.00 in
19:40 80.4 °F 67.6 °F 29.89 in East 3.0 mph 11.0 mph 65 % 0.00 in
19:45 80.1 °F 67.6 °F 29.88 in East 5.0 mph 8.0 mph 66 % 0.00 in
19:50 79.9 °F 68.0 °F 29.88 in ESE 5.0 mph 10.0 mph 67 % 0.00 in
19:55 79.5 °F 68.0 °F 29.88 in East 3.0 mph 11.0 mph 68 % 0.00 in
20:00 79.3 °F 67.8 °F 29.88 in SE 4.0 mph 11.0 mph 68 % 0.00 in
20:05 79.0 °F 68.0 °F 29.88 in East 5.0 mph 11.0 mph 69 % 0.00 in
20:10 78.8 °F 68.2 °F 29.88 in ESE 4.0 mph 9.0 mph 70 % 0.00 in
20:15 78.6 °F 68.4 °F 29.88 in ESE 2.0 mph 9.0 mph 71 % 0.00 in
20:20 78.3 °F 68.0 °F 29.88 in SE 5.0 mph 9.0 mph 71 % 0.00 in
20:25 78.1 °F 68.4 °F 29.88 in SSE 1.0 mph 9.0 mph 72 % 0.00 in
20:30 77.9 °F 68.5 °F 29.88 in ESE 5.0 mph 9.0 mph 73 % 0.00 in
20:35 77.7 °F 68.4 °F 29.88 in ESE 6.0 mph 9.0 mph 73 % 0.00 in
20:40 77.5 °F 68.2 °F 29.88 in East 5.0 mph 9.0 mph 73 % 0.00 in
20:45 77.4 °F 68.4 °F 29.88 in SSE 5.0 mph 9.0 mph 74 % 0.00 in
20:50 77.2 °F 68.2 °F 29.88 in SE 3.0 mph 9.0 mph 74 % 0.00 in
20:55 77.2 °F 68.2 °F 29.88 in ESE 8.0 mph 8.0 mph 74 % 0.00 in
21:00 77.0 °F 68.5 °F 29.89 in ESE 5.0 mph 8.0 mph 75 % 0.00 in
21:05 76.8 °F 68.4 °F 29.89 in SSE 4.0 mph 8.0 mph 75 % 0.00 in
21:10 76.6 °F 68.2 °F 29.89 in SE 5.0 mph 8.0 mph 75 % 0.00 in
21:15 76.5 °F 68.4 °F 29.89 in ENE 5.0 mph 8.0 mph 76 % 0.00 in
21:20 76.3 °F 68.2 °F 29.90 in SSE 2.0 mph 9.0 mph 76 % 0.00 in
21:25 76.3 °F 68.2 °F 29.90 in SE 3.0 mph 9.0 mph 76 % 0.00 in
21:26 76.1 °F 68.4 °F 29.90 in ESE 3.0 mph 9.0 mph 77 % 0.00 in
21:31 75.9 °F 68.2 °F 29.90 in SE 3.0 mph 9.0 mph 77 % 0.00 in
21:36 75.9 °F 68.2 °F 29.90 in ESE 4.0 mph 6.0 mph 77 % 0.00 in
21:41 75.7 °F 68.0 °F 29.90 in ESE 8.0 mph 8.0 mph 77 % 0.00 in
21:46 75.7 °F 68.4 °F 29.90 in SSE 2.0 mph 11.0 mph 78 % 0.00 in
21:52 75.6 °F 68.2 °F 29.90 in ESE 6.0 mph 11.0 mph 78 % 0.00 in
21:57 75.4 °F 68.4 °F 29.90 in ESE 2.0 mph 11.0 mph 79 % 0.00 in
22:02 75.4 °F 68.4 °F 29.90 in SE 4.0 mph 11.0 mph 79 % 0.00 in
22:07 75.2 °F 68.2 °F 29.90 in SE 3.0 mph 11.0 mph 79 % 0.00 in
22:12 75.0 °F 68.4 °F 29.91 in ESE 6.0 mph 11.0 mph 80 % 0.00 in
22:17 75.0 °F 68.4 °F 29.91 in SE 3.0 mph 6.0 mph 80 % 0.00 in
22:22 75.0 °F 68.4 °F 29.91 in ESE 7.0 mph 8.0 mph 80 % 0.00 in
22:27 75.0 °F 68.4 °F 29.91 in ESE 7.0 mph 9.0 mph 80 % 0.00 in
22:32 75.0 °F 68.4 °F 29.91 in ESE 4.0 mph 9.0 mph 80 % 0.00 in
22:37 75.0 °F 68.7 °F 29.91 in SSE 6.0 mph 9.0 mph 81 % 0.00 in
22:42 75.0 °F 68.7 °F 29.91 in East 6.0 mph 9.0 mph 81 % 0.00 in
22:47 75.0 °F 68.7 °F 29.92 in ESE 7.0 mph 9.0 mph 81 % 0.00 in
22:52 74.8 °F 68.5 °F 29.91 in ESE 4.0 mph 9.0 mph 81 % 0.00 in
22:57 74.8 °F 68.9 °F 29.91 in East 3.0 mph 8.0 mph 82 % 0.00 in
23:02 74.8 °F 68.9 °F 29.91 in SE 4.0 mph 8.0 mph 82 % 0.00 in
23:07 74.7 °F 68.7 °F 29.91 in SSE 2.0 mph 8.0 mph 82 % 0.00 in
23:12 74.7 °F 69.1 °F 29.91 in SSE 3.0 mph 8.0 mph 83 % 0.00 in
23:17 74.5 °F 68.9 °F 29.91 in SE 3.0 mph 11.0 mph 83 % 0.00 in
23:22 74.5 °F 68.9 °F 29.91 in ESE 2.0 mph 11.0 mph 83 % 0.00 in
23:27 74.1 °F 68.9 °F 29.91 in ESE 1.0 mph 11.0 mph 84 % 0.00 in
23:32 74.1 °F 68.9 °F 29.91 in East 3.0 mph 6.0 mph 84 % 0.00 in
23:37 73.9 °F 68.7 °F 29.91 in SE 1.0 mph 5.0 mph 84 % 0.00 in
23:42 73.8 °F 68.5 °F 29.91 in East 2.0 mph 5.0 mph 84 % 0.00 in
23:47 73.6 °F 68.7 °F 29.91 in ESE 3.0 mph 4.0 mph 85 % 0.00 in
23:52 73.6 °F 68.7 °F 29.91 in Calm   4.0 mph 85 % 0.00 in
23:57 73.2 °F 68.7 °F 29.91 in ESE 3.0 mph 3.0 mph 86 % 0.00 in
Spring, Texas: Villages of Bridgestone
Compliments of Weather Underground - 2.75 mb

Script developed by  Jim McMurry - jmcmurry@mwt.net Adapted for the template by  Wim van der Kuil - Leuven-Template.eu

You find our weather info also at:

UK Metoffice

WeatherCloud

Weather Underground

Mid-South Weather Network

AWEKAS

Citizen Weather Observer Program (CWOP)

HAMweather, WeatherForYou, PWS Weather

Equipment we use:

Weather-station
Davis Vantage Vue

Weather-program
Meteohub

Weather-server
Debian 7.9 x86 (Guest)

Provider
DreamHost

Davis Vantage Vue

Meteohub

Debian 7.9 x86 (Guest)

DreamHost